TimeCDT,TemperatureF,Dew PointF,Humidity,Sea Level PressureIn,VisibilityMPH,Wind Direction,Wind SpeedMPH,Gust SpeedMPH,PrecipitationIn,Events,Conditions,WindDirDegrees,DateUTC
12:53 AM,51.1,48.9,92,30.40,10.0,Calm,Calm,-,N/A,,Clear,0,2012-09-14 05:53:00
1:27 AM,50.0,48.2,94,30.39,2.5,North,3.5,-,N/A,,Partly Cloudy,360,2012-09-14 06:27:00
1:31 AM,50.0,48.2,94,30.40,1.0,Calm,Calm,-,N/A,,Mist,0,2012-09-14 06:31:00
1:35 AM,50.0,48.2,94,30.40,0.5,Calm,Calm,-,N/A,Fog,Fog,0,2012-09-14 06:35:00
1:53 AM,50.0,48.0,93,30.40,0.5,North,3.5,-,0.01,Fog,Fog,10,2012-09-14 06:53:00
2:00 AM,50.0,48.2,94,30.39,1.0,NNE,3.5,-,N/A,,Mist,20,2012-09-14 07:00:00
2:07 AM,50.0,48.2,94,30.39,3.0,NNE,3.5,-,N/A,,Mostly Cloudy,20,2012-09-14 07:07:00
2:21 AM,50.0,48.2,94,30.39,1.8,Calm,Calm,-,N/A,,Mostly Cloudy,0,2012-09-14 07:21:00
2:28 AM,50.0,48.2,94,30.38,0.5,Calm,Calm,-,N/A,Fog,Fog,0,2012-09-14 07:28:00
2:53 AM,48.9,48.0,97,30.39,0.2,Calm,Calm,-,N/A,Fog,Fog,0,2012-09-14 07:53:00
3:28 AM,48.2,48.2,100,30.37,0.8,Calm,Calm,-,N/A,,Mist,0,2012-09-14 08:28:00
3:53 AM,48.0,46.9,96,30.36,0.5,Calm,Calm,-,N/A,Fog,Fog,0,2012-09-14 08:53:00
4:17 AM,48.2,46.4,93,30.36,1.0,Calm,Calm,-,N/A,,Mist,0,2012-09-14 09:17:00
4:35 AM,48.2,46.4,93,30.36,3.0,Calm,Calm,-,N/A,,Overcast,0,2012-09-14 09:35:00
4:42 AM,46.4,46.4,100,30.36,1.8,Calm,Calm,-,N/A,,Overcast,0,2012-09-14 09:42:00
4:53 AM,46.9,46.0,97,30.36,0.5,Calm,Calm,-,N/A,Fog,Fog,0,2012-09-14 09:53:00
5:14 AM,46.4,46.4,100,30.36,1.0,North,3.5,-,N/A,,Mist,10,2012-09-14 10:14:00
5:23 AM,48.2,46.4,93,30.37,0.5,North,4.6,-,N/A,Fog,Fog,10,2012-09-14 10:23:00
5:38 AM,48.2,46.4,93,30.37,0.2,NNE,4.6,-,N/A,Fog,Fog,20,2012-09-14 10:38:00
5:53 AM,48.9,48.0,97,30.38,0.2,North,4.6,-,N/A,Fog,Fog,10,2012-09-14 10:53:00
6:17 AM,48.2,48.2,100,30.38,0.2,Calm,Calm,-,N/A,Fog,Fog,0,2012-09-14 11:17:00
6:53 AM,48.0,46.9,96,30.40,0.2,Calm,Calm,-,N/A,Fog,Fog,0,2012-09-14 11:53:00
7:05 AM,48.2,48.2,100,30.39,0.2,Calm,Calm,-,N/A,Fog,Fog,0,2012-09-14 12:05:00
7:22 AM,48.2,46.4,93,30.39,0.2,Calm,Calm,-,N/A,Fog,Fog,0,2012-09-14 12:22:00
7:30 AM,48.2,46.4,93,30.40,0.2,Calm,Calm,-,N/A,Fog,Fog,0,2012-09-14 12:30:00
7:53 AM,48.9,48.0,97,30.41,0.2,Calm,Calm,-,N/A,Fog,Fog,0,2012-09-14 12:53:00
8:21 AM,50.0,48.2,94,30.41,0.2,Calm,Calm,-,N/A,Fog,Fog,0,2012-09-14 13:21:00
8:50 AM,51.8,50.0,94,30.41,1.0,Calm,Calm,-,N/A,,Overcast,0,2012-09-14 13:50:00
8:53 AM,51.1,51.1,100,30.42,2.0,North,3.5,-,N/A,,Overcast,350,2012-09-14 13:53:00
9:09 AM,51.8,51.8,100,30.41,4.0,North,3.5,-,N/A,,Mostly Cloudy,360,2012-09-14 14:09:00
9:26 AM,53.6,53.6,100,30.41,9.0,North,5.8,-,N/A,,Scattered Clouds,360,2012-09-14 14:26:00
9:53 AM,55.0,53.1,93,30.42,10.0,North,4.6,-,N/A,,Clear,350,2012-09-14 14:53:00
10:53 AM,60.1,54.0,80,30.42,10.0,North,3.5,-,N/A,,Clear,360,2012-09-14 15:53:00
11:53 AM,66.0,52.0,60,30.40,10.0,NNE,5.8,-,N/A,,Clear,20,2012-09-14 16:53:00
12:53 PM,66.0,44.1,45,30.38,10.0,North,4.6,-,N/A,,Clear,10,2012-09-14 17:53:00
1:53 PM,69.1,43.0,39,30.37,10.0,East,8.1,-,N/A,,Clear,90,2012-09-14 18:53:00
2:53 PM,70.0,44.1,39,30.36,10.0,NNE,4.6,-,N/A,,Clear,30,2012-09-14 19:53:00
3:53 PM,71.1,41.0,34,30.33,10.0,East,6.9,-,N/A,,Clear,100,2012-09-14 20:53:00
4:53 PM,71.1,39.9,32,30.32,10.0,Variable,4.6,-,N/A,,Clear,0,2012-09-14 21:53:00
5:53 PM,71.1,42.1,35,30.32,10.0,East,4.6,-,N/A,,Clear,80,2012-09-14 22:53:00
6:53 PM,66.0,45.0,47,30.31,10.0,ENE,4.6,-,N/A,,Clear,60,2012-09-14 23:53:00
7:53 PM,57.9,48.9,72,30.31,10.0,Calm,Calm,-,N/A,,Clear,0,2012-09-15 00:53:00
8:53 PM,53.1,48.0,83,30.32,10.0,Calm,Calm,-,N/A,,Clear,0,2012-09-15 01:53:00
9:53 PM,51.1,46.9,86,30.32,10.0,Calm,Calm,-,N/A,,Clear,0,2012-09-15 02:53:00
10:53 PM,48.0,44.1,86,30.32,10.0,Calm,Calm,-,N/A,,Clear,0,2012-09-15 03:53:00
11:53 PM,48.9,46.0,90,30.31,10.0,Calm,Calm,-,N/A,,Clear,0,2012-09-15 04:53:00